aviador You're here:

KALI Decoded Metar

ALICE in TX, USA
Report Time2018-01-22 11:53:00
UTC Time2018-01-22 12:11:49
Flight Rules vfr VFR
Wind350° at 13 kt
W.Decomp.*RWY 35: 12.9 kt HW 1.4 kt LCW
RWY 31: 10.8 kt HW 7.3 kt RCW
W.Rank350° ranks 13
Current wind is above 350° avg. (8.0)
Visibility9999 m
Phenomena:N/A
Clouds:N/A
Expected CloudBase > 3,200 ft AGL from Temp-Dew spread
CeilingNone
Temp15°C (ISA 0)
Dew Point07°C (59% RH)
AAT9.6°C
QNH1016 hPa
Density Alt249 ft
Elevation174 ft
Report Wrong Elevation
Raw Report
KALI 221153Z AUTO 35013KT 10SM CLR 15/07 A2999 RMK AO2 SLP154
T01500067 10206 20150 51025=

Extra information for KALI:More info

Metar Taf Metar & Taf Last 4 Metars F.Rules Stats Wind Profile Meteogram Temp Stats Airport Information Weather charts Add Link Nearby VenuesMetar ALERT Operation Metar Decoded Social comments

AIRNAV info for KALI